Time;durP1;ratioP1;P1;durP2;ratioP2;P2;SDS_P1;SDS_P2;PMS_P1;PMS_P2;Temp;Humidity;BMP_temperature;BMP_pressure;BME280_temperature;BME280_humidity;BME280_pressure;Samples;Min_cycle;Max_cycle;Signal;HPM_P1;HPM_P2
2022/09/06 00:00:50;;;;;;;3.20;1.23;;;;;;;20.89;49.88;99496.03;4995593;28;20061;-73
2022/09/06 00:03:16;;;;;;;3.58;1.33;;;;;;;20.89;49.78;99506.63;4979648;28;20032;-73
2022/09/06 00:05:43;;;;;;;3.30;1.10;;;;;;;20.89;49.86;99510.16;4995452;28;20076;-73
2022/09/06 00:08:08;;;;;;;2.53;0.93;;;;;;;20.85;50.05;99500.84;4995662;28;20065;-73
2022/09/06 00:10:34;;;;;;;2.28;1.10;;;;;;;20.89;49.82;99510.16;4963150;28;20139;-73
2022/09/06 00:13:03;;;;;;;4.68;1.30;;;;;;;20.84;50.04;99499.19;4995653;28;20504;-73
2022/09/06 00:15:29;;;;;;;2.85;1.10;;;;;;;20.80;49.86;99500.50;4974805;28;20469;-73
2022/09/06 00:17:57;;;;;;;2.90;1.13;;;;;;;20.84;49.90;99504.50;4963021;28;20025;-75
2022/09/06 00:20:26;;;;;;;5.15;1.02;;;;;;;20.83;49.88;99505.50;4995567;28;20034;-76
2022/09/06 00:22:54;;;;;;;2.78;1.02;;;;;;;20.78;49.86;99498.03;4980239;28;20038;-74
2022/09/06 00:25:21;;;;;;;3.63;1.20;;;;;;;20.77;49.86;99498.19;4979487;28;20409;-74
2022/09/06 00:27:46;;;;;;;2.88;1.50;;;;;;;20.74;50.05;99499.34;4995455;28;20026;-74
2022/09/06 00:30:12;;;;;;;2.10;1.02;;;;;;;20.71;50.25;99502.31;5012488;28;20041;-74
2022/09/06 00:32:38;;;;;;;8.13;1.25;;;;;;;20.70;50.22;99507.78;5008627;28;20477;-74
2022/09/06 00:35:05;;;;;;;2.47;1.08;;;;;;;20.68;50.27;99505.28;4992146;28;20042;-74
2022/09/06 00:37:30;;;;;;;4.43;1.05;;;;;;;20.67;50.10;99506.31;4979350;28;20117;-74
2022/09/06 00:39:56;;;;;;;3.60;1.00;;;;;;;20.61;50.20;99494.47;5012366;28;20033;-74
2022/09/06 00:42:21;;;;;;;3.00;1.27;;;;;;;20.62;50.39;99503.28;4962742;28;20037;-74
2022/09/06 00:44:47;;;;;;;3.97;1.27;;;;;;;20.60;50.21;99500.81;4978731;28;20088;-75
2022/09/06 00:47:12;;;;;;;3.05;1.00;;;;;;;20.58;50.38;99493.97;4962675;28;20113;-75
2022/09/06 00:49:46;;;;;;;4.40;1.30;;;;;;;20.53;50.45;99491.81;4994987;28;20041;-74
2022/09/06 00:52:12;;;;;;;3.20;1.20;;;;;;;20.51;50.52;99491.16;4980202;28;20486;-83
2022/09/06 00:54:38;;;;;;;5.38;1.15;;;;;;;20.53;50.66;99505.09;4977362;28;20034;-74
2022/09/06 00:57:04;;;;;;;3.95;0.98;;;;;;;20.46;50.60;99489.97;5012303;28;20108;-74
2022/09/06 00:59:31;;;;;;;3.10;1.10;;;;;;;20.50;50.55;99505.41;4977244;28;20060;-76
2022/09/06 01:01:57;;;;;;;4.10;1.20;;;;;;;20.48;50.62;99501.25;4993427;28;20101;-75
2022/09/06 01:04:23;;;;;;;5.80;1.30;;;;;;;20.42;50.64;99497.44;4993649;28;20037;-74
2022/09/06 01:07:05;;;;;;;3.25;1.00;;;;;;;20.43;50.61;99502.56;4993029;28;20575;-74
2022/09/06 01:09:56;;;;;;;2.65;1.20;;;;;;;20.41;50.50;99488.66;4992767;28;20054;-74
2022/09/06 01:12:26;;;;;;;7.32;1.30;;;;;;;20.36;50.74;99496.25;4990979;28;20457;-74
2022/09/06 01:14:54;;;;;;;1.90;1.00;;;;;;;20.35;50.64;99496.41;4992903;28;20025;-74
2022/09/06 01:17:29;;;;;;;2.85;1.15;;;;;;;20.35;50.78;99493.75;5010642;28;20382;-74
2022/09/06 01:20:24;;;;;;;2.22;1.33;;;;;;;20.30;50.75;99488.94;5008041;28;20026;-74
2022/09/06 01:23:11;;;;;;;1.90;1.13;;;;;;;20.26;50.77;99495.56;4913136;29;20039;-74
2022/09/06 01:26:27;;;;;;;2.42;1.13;;;;;;;20.23;50.91;99498.53;4925499;29;20488;-74
2022/09/06 01:28:52;;;;;;;7.10;1.48;;;;;;;20.21;50.98;99493.41;4922502;29;20059;-74
2022/09/06 01:31:30;;;;;;;1.50;1.00;;;;;;;20.19;50.89;99498.03;4920860;29;20471;-77
2022/09/06 01:34:04;;;;;;;3.28;1.10;;;;;;;20.18;50.92;99487.59;4920491;29;20140;-74
2022/09/06 01:36:51;;;;;;;3.03;1.05;;;;;;;20.13;51.00;99492.53;4920449;29;20055;-75
2022/09/06 01:39:22;;;;;;;2.22;1.02;;;;;;;20.13;50.98;99492.53;4916633;29;20052;-74
2022/09/06 01:41:48;;;;;;;5.10;1.20;;;;;;;20.11;51.14;99490.03;4932488;29;20073;-74
2022/09/06 01:44:13;;;;;;;4.70;1.00;;;;;;;20.08;51.16;99487.72;4922848;29;20048;-75
2022/09/06 01:46:59;;;;;;;3.13;0.95;;;;;;;20.06;51.05;99476.44;4906385;29;20044;-74
2022/09/06 01:50:03;;;;;;;2.72;1.33;;;;;;;20.07;51.21;99486.06;4919508;29;20036;-74
2022/09/06 01:52:38;;;;;;;2.47;1.30;;;;;;;20.04;50.86;99481.09;4929164;29;20036;-74
2022/09/06 01:55:28;;;;;;;3.80;1.33;;;;;;;20.02;51.05;99486.53;4925480;29;20085;-74
2022/09/06 01:58:32;;;;;;;3.15;1.20;;;;;;;20.01;51.22;99481.41;4919973;29;20040;-73
2022/09/06 02:01:02;;;;;;;4.13;1.10;;;;;;;19.95;51.31;99474.09;4917095;29;20028;-74
2022/09/06 02:03:40;;;;;;;2.05;1.13;;;;;;;19.97;51.42;99477.41;4920942;29;20155;-74
2022/09/06 02:06:08;;;;;;;3.72;1.08;;;;;;;19.94;51.16;99473.28;4904252;29;20177;-74
2022/09/06 02:08:37;;;;;;;3.70;1.20;;;;;;;19.91;51.28;99465.63;4904302;29;20439;-74
2022/09/06 02:11:03;;;;;;;1.95;1.00;;;;;;;19.93;51.18;99466.28;4920117;29;20542;-74
2022/09/06 02:14:00;;;;;;;4.45;1.08;;;;;;;19.93;51.27;99463.66;4919683;29;20385;-74
2022/09/06 02:16:26;;;;;;;1.77;1.20;;;;;;;19.90;51.42;99456.00;4935381;29;20050;-74
2022/09/06 02:18:56;;;;;;;3.05;1.23;;;;;;;19.85;51.51;99448.53;4932375;29;20056;-74
2022/09/06 02:21:24;;;;;;;3.58;1.20;;;;;;;19.89;51.34;99454.34;4932223;29;20043;-74
2022/09/06 02:23:50;;;;;;;2.50;1.33;;;;;;;19.88;51.73;99448.22;4916356;29;20036;-74
2022/09/06 02:26:20;;;;;;;3.70;1.15;;;;;;;19.88;51.59;99445.56;4916544;29;20167;-74
2022/09/06 02:28:46;;;;;;;2.22;1.00;;;;;;;19.89;51.53;99451.69;4934985;29;20035;-74
2022/09/06 02:31:20;;;;;;;2.70;1.13;;;;;;;19.87;51.57;99448.38;4966138;28;20065;-74
2022/09/06 02:33:45;;;;;;;2.45;1.25;;;;;;;19.83;51.52;99434.63;4997027;28;20022;-74
2022/09/06 02:36:11;;;;;;;3.05;1.05;;;;;;;19.85;51.69;99442.44;4981145;28;20133;-74
2022/09/06 02:38:37;;;;;;;4.80;1.40;;;;;;;19.82;51.75;99442.75;4981198;28;20034;-74
2022/09/06 02:41:03;;;;;;;3.10;1.30;;;;;;;19.80;51.96;99440.25;4965215;28;20037;-74
2022/09/06 02:43:28;;;;;;;2.53;1.25;;;;;;;19.75;51.90;99436.38;4981033;28;20033;-74
2022/09/06 02:45:53;;;;;;;2.95;1.35;;;;;;;19.78;52.05;99444.91;4964807;28;20026;-74
2022/09/06 02:48:19;;;;;;;3.75;1.30;;;;;;;19.74;51.82;99443.50;4981217;28;20037;-74
2022/09/06 02:50:44;;;;;;;1.60;1.10;;;;;;;19.77;51.94;99455.66;4997203;28;20413;-74
2022/09/06 02:53:11;;;;;;;2.03;1.00;;;;;;;19.75;52.05;99445.19;4996886;28;20034;-74
2022/09/06 02:55:37;;;;;;;3.75;1.10;;;;;;;19.74;52.08;99450.63;4980947;28;20033;-74
2022/09/06 02:58:03;;;;;;;1.70;0.95;;;;;;;19.69;51.89;99441.31;4964409;28;20571;-74
2022/09/06 03:00:29;;;;;;;3.00;1.40;;;;;;;19.69;51.96;99443.16;4980838;28;20034;-74
2022/09/06 03:02:55;;;;;;;3.90;1.20;;;;;;;19.69;52.18;99451.09;4980502;28;20501;-74
2022/09/06 03:05:24;;;;;;;2.53;1.30;;;;;;;19.67;52.04;99445.97;4996738;28;20046;-74
2022/09/06 03:07:50;;;;;;;2.55;1.38;;;;;;;19.60;52.16;99439.63;4980803;28;20513;-74
2022/09/06 03:10:16;;;;;;;3.25;1.42;;;;;;;19.63;52.00;99449.09;4996819;28;20425;-74
2022/09/06 03:12:43;;;;;;;3.95;1.35;;;;;;;19.61;52.17;99454.53;4980366;28;20136;-74
2022/09/06 03:15:09;;;;;;;2.50;1.27;;;;;;;19.58;52.10;99446.09;4980402;28;20382;-74
2022/09/06 03:17:34;;;;;;;2.80;1.35;;;;;;;19.60;52.26;99449.41;4964147;28;20040;-74
2022/09/06 03:20:00;;;;;;;2.35;1.30;;;;;;;19.59;52.25;99445.91;4980440;28;20030;-74
2022/09/06 03:22:25;;;;;;;2.15;1.10;;;;;;;19.57;52.32;99447.06;4996647;28;20084;-74
2022/09/06 03:24:51;;;;;;;2.25;1.20;;;;;;;19.55;52.24;99449.88;4980308;28;20038;-74
2022/09/06 03:27:16;;;;;;;5.97;1.30;;;;;;;19.57;52.33;99462.97;4980291;28;20087;-75
2022/09/06 03:29:42;;;;;;;2.08;1.10;;;;;;;19.47;52.30;99448.00;4996358;28;20026;-74
2022/09/06 03:32:07;;;;;;;6.57;1.30;;;;;;;19.49;52.42;99458.44;4980530;28;20418;-74
2022/09/06 03:34:32;;;;;;;3.88;1.20;;;;;;;19.48;52.54;99459.41;4996457;28;20062;-74
2022/09/06 03:36:58;;;;;;;4.47;0.93;;;;;;;19.51;52.67;99469.69;4980044;28;20053;-74
2022/09/06 03:39:23;;;;;;;5.97;1.30;;;;;;;19.48;52.62;99470.84;5013669;28;20041;-74
2022/09/06 03:41:49;;;;;;;5.45;1.20;;;;;;;19.45;52.50;99476.47;4980237;28;20025;-74
2022/09/06 03:44:14;;;;;;;3.55;1.20;;;;;;;19.44;52.65;99480.09;4996296;28;20037;-74
2022/09/06 03:46:40;;;;;;;3.75;1.10;;;;;;;19.47;52.85;99482.44;4979931;28;20030;-74
2022/09/06 03:49:06;;;;;;;3.17;1.15;;;;;;;19.45;52.35;99479.13;4980257;28;20042;-74
2022/09/06 03:51:32;;;;;;;1.88;1.02;;;;;;;19.54;52.58;99485.28;4979286;28;20034;-75
2022/09/06 03:53:57;;;;;;;3.70;1.20;;;;;;;19.64;52.00;99483.34;5013574;28;20049;-74
2022/09/06 03:56:23;;;;;;;3.15;0.95;;;;;;;19.88;51.82;99498.56;4979902;28;20327;-75
2022/09/06 03:58:48;;;;;;;3.55;1.40;;;;;;;20.04;51.26;99487.22;5013409;28;20037;-74
2022/09/06 04:01:14;;;;;;;4.03;1.10;;;;;;;20.30;50.76;99490.78;4978885;28;20041;-73
2022/09/06 04:03:39;;;;;;;2.65;1.17;;;;;;;20.31;50.64;99482.66;4979728;28;20033;-74
2022/09/06 04:06:05;;;;;;;5.05;1.27;;;;;;;20.38;50.61;99486.34;4979105;28;20045;-74
2022/09/06 04:08:31;;;;;;;3.53;1.00;;;;;;;20.97;49.64;99496.06;4979758;28;20417;-74
2022/09/06 04:10:57;;;;;;;2.95;1.27;;;;;;;20.89;49.41;99491.56;4979583;28;20032;-75
2022/09/06 04:13:23;;;;;;;3.47;1.30;;;;;;;20.83;49.44;99478.13;4995798;28;20113;-73
2022/09/06 04:15:48;;;;;;;1.70;1.20;;;;;;;21.00;49.29;99484.25;4995066;28;20062;-75
2022/09/06 04:18:14;;;;;;;2.47;1.23;;;;;;;22.00;46.83;99470.63;4980340;28;20104;-86
2022/09/06 04:20:39;;;;;;;1.92;1.05;;;;;;;22.93;44.72;99474.22;4965093;28;20029;-74
2022/09/06 04:23:05;;;;;;;3.05;1.20;;;;;;;23.89;42.76;99477.13;4995533;28;20078;-75
2022/09/06 04:25:30;;;;;;;2.72;1.00;;;;;;;24.68;40.71;99471.06;4979233;28;20033;-74
2022/09/06 04:27:56;;;;;;;2.42;1.00;;;;;;;25.49;39.03;99467.19;4962840;28;20046;-74
2022/09/06 04:30:21;;;;;;;3.72;1.00;;;;;;;26.22;37.39;99460.56;4994896;28;20057;-75
2022/09/06 04:32:47;;;;;;;4.75;1.05;;;;;;;26.90;35.69;99461.31;4978648;28;20026;-75
2022/09/06 04:35:12;;;;;;;3.25;1.10;;;;;;;27.69;34.88;99469.50;4978515;28;20080;-75
2022/09/06 04:37:38;;;;;;;1.75;1.02;;;;;;;28.38;33.31;99467.16;4979097;28;20068;-76
2022/09/06 04:40:04;;;;;;;5.82;1.10;;;;;;;29.03;31.68;99476.84;4995016;28;20468;-77
2022/09/06 04:42:29;;;;;;;4.05;1.23;;;;;;;29.57;30.85;99472.63;4962941;28;20437;-75
2022/09/06 04:44:55;;;;;;;4.10;1.00;;;;;;;30.22;30.03;99489.28;4962862;28;20041;-75
2022/09/06 04:47:20;;;;;;;3.72;0.98;;;;;;;30.75;29.29;99493.13;4978249;28;20069;-75
2022/09/06 04:49:49;;;;;;;2.33;0.80;;;;;;;30.03;30.24;99488.47;4978894;28;20040;-75
2022/09/06 04:52:14;;;;;;;3.72;1.10;;;;;;;29.56;30.65;99492.50;4995401;28;20513;-74
2022/09/06 04:54:40;;;;;;;6.40;1.10;;;;;;;28.91;32.31;99492.88;4962847;28;20029;-87
2022/09/06 04:57:05;;;;;;;7.47;1.00;;;;;;;28.52;34.78;99490.19;4979775;28;20029;-84
2022/09/06 04:59:31;;;;;;;21.70;1.73;;;;;;;28.22;35.35;99487.25;4975579;28;20112;-77
2022/09/06 05:01:57;;;;;;;12.10;1.27;;;;;;;27.97;35.72;99481.78;5007945;28;20042;-82
2022/09/06 05:04:22;;;;;;;6.85;1.13;;;;;;;27.66;35.72;99477.13;4960643;28;20480;-80
2022/09/06 05:06:48;;;;;;;4.55;1.10;;;;;;;27.33;35.86;99473.50;4959002;28;20572;-82
2022/09/06 05:09:14;;;;;;;26.02;1.80;;;;;;;27.06;36.59;99473.47;4975485;28;20399;-79
2022/09/06 05:11:39;;;;;;;32.80;1.70;;;;;;;26.89;37.09;99481.09;4957218;28;20060;-80
2022/09/06 05:14:05;;;;;;;14.27;1.50;;;;;;;26.81;37.66;99477.81;4978599;28;20025;-78
2022/09/06 05:16:30;;;;;;;4.93;1.10;;;;;;;27.04;37.79;99475.56;4995364;28;20067;-83
2022/09/06 05:18:55;;;;;;;6.07;1.30;;;;;;;27.36;36.70;99474.94;4961249;28;20033;-77
2022/09/06 05:21:21;;;;;;;5.45;1.23;;;;;;;27.32;36.32;99476.38;5011645;28;20041;-77
2022/09/06 05:23:47;;;;;;;3.92;1.10;;;;;;;29.16;33.34;99473.19;4962092;28;20490;-75
2022/09/06 05:26:12;;;;;;;6.28;1.23;;;;;;;30.51;31.23;99482.28;4962033;28;20045;-79
2022/09/06 05:28:38;;;;;;;6.68;1.30;;;;;;;31.84;29.66;99476.50;4973989;28;20036;-78
2022/09/06 05:31:05;;;;;;;4.95;1.30;;;;;;;32.87;27.89;99470.31;4991196;28;20037;-78
2022/09/06 05:33:30;;;;;;;8.85;1.20;;;;;;;33.69;26.38;99468.78;4959097;28;20092;-79
2022/09/06 05:35:56;;;;;;;3.53;1.40;;;;;;;34.40;25.44;99476.16;4974972;28;20026;-86
2022/09/06 05:38:21;;;;;;;3.20;1.10;;;;;;;34.62;24.79;99480.69;4990447;28;20045;-77
2022/09/06 05:40:47;;;;;;;8.90;1.50;;;;;;;35.28;24.56;99476.88;4991613;28;20406;-74
2022/09/06 05:43:12;;;;;;;14.57;1.90;;;;;;;35.92;24.31;99470.41;4974748;28;20026;-74
2022/09/06 05:45:38;;;;;;;6.65;1.40;;;;;;;36.25;22.79;99464.81;4973724;28;20042;-74
2022/09/06 05:48:03;;;;;;;4.70;1.30;;;;;;;36.63;22.11;99466.22;4959627;28;20077;-79
2022/09/06 05:50:29;;;;;;;4.00;1.30;;;;;;;36.85;21.63;99465.97;4975565;28;20026;-75
2022/09/06 05:52:54;;;;;;;4.07;1.20;;;;;;;37.04;21.21;99458.06;4957298;28;20034;-73
2022/09/06 05:55:20;;;;;;;7.85;1.30;;;;;;;37.27;21.05;99469.47;4989622;28;20025;-74
2022/09/06 05:57:45;;;;;;;5.25;1.13;;;;;;;37.35;21.31;99468.88;4974523;28;20056;-73
2022/09/06 06:00:11;;;;;;;5.47;1.23;;;;;;;37.56;21.70;99460.66;4974800;28;20133;-73
2022/09/06 06:02:38;;;;;;;7.55;1.10;;;;;;;37.66;21.08;99455.97;4995725;28;20495;-72
2022/09/06 06:05:04;;;;;;;3.20;0.88;;;;;;;37.72;20.79;99461.44;4995931;28;20166;-80
2022/09/06 06:07:30;;;;;;;5.18;1.17;;;;;;;37.76;20.39;99460.59;4956563;28;20084;-73
2022/09/06 06:09:55;;;;;;;7.85;1.08;;;;;;;37.80;20.67;99452.69;5014078;28;20038;-75
2022/09/06 06:12:21;;;;;;;4.22;1.15;;;;;;;37.91;20.61;99448.03;5014014;28;20481;-77
2022/09/06 06:14:46;;;;;;;9.13;1.30;;;;;;;37.94;20.32;99452.88;5015152;28;20022;-90
2022/09/06 06:17:12;;;;;;;5.25;1.17;;;;;;;37.88;20.41;99451.31;4965929;28;20493;-77
2022/09/06 06:19:38;;;;;;;4.55;0.80;;;;;;;37.92;20.23;99449.63;4996513;28;20033;-76
2022/09/06 06:22:04;;;;;;;5.20;1.20;;;;;;;37.89;20.06;99447.47;4996048;28;20025;-76
2022/09/06 06:24:29;;;;;;;4.50;1.13;;;;;;;37.88;20.16;99449.38;4995840;28;20037;-73
2022/09/06 06:26:55;;;;;;;3.75;1.23;;;;;;;37.85;20.07;99439.03;4979109;28;20042;-77
2022/09/06 06:29:21;;;;;;;4.85;1.30;;;;;;;37.87;20.02;99442.28;4963894;28;20029;-78
2022/09/06 06:31:46;;;;;;;4.78;1.13;;;;;;;37.97;19.70;99433.25;5013661;28;20029;-77
2022/09/06 06:34:12;;;;;;;5.13;1.10;;;;;;;38.12;19.08;99445.97;4979473;28;20531;-80
2022/09/06 06:36:37;;;;;;;5.15;1.20;;;;;;;38.16;19.13;99442.44;4996089;28;20038;-78
2022/09/06 06:39:04;;;;;;;7.15;1.92;;;;;;;38.21;18.78;99441.59;4995609;28;20029;-78
2022/09/06 06:41:30;;;;;;;10.38;1.83;;;;;;;38.25;19.46;99444.56;4979575;28;20026;-77
2022/09/06 06:44:01;;;;;;;9.00;1.97;;;;;;;38.36;19.07;99449.63;4997691;28;20405;-79
2022/09/06 06:46:28;;;;;;;3.83;1.85;;;;;;;38.51;18.87;99446.00;4967101;28;20026;-76
2022/09/06 06:48:54;;;;;;;7.00;2.08;;;;;;;38.60;19.19;99443.44;4982341;28;20038;-78
2022/09/06 06:51:20;;;;;;;7.63;1.90;;;;;;;38.71;18.49;99442.31;4979827;28;20046;-78
2022/09/06 06:53:49;;;;;;;6.80;2.15;;;;;;;38.84;18.20;99448.19;4964617;28;20030;-74
2022/09/06 06:56:27;;;;;;;7.53;2.40;;;;;;;38.95;18.45;99455.19;5014145;28;20040;-73
2022/09/06 06:58:54;;;;;;;7.53;2.10;;;;;;;39.02;18.17;99446.66;4995531;28;20505;-75
2022/09/06 07:01:20;;;;;;;4.88;2.10;;;;;;;39.14;18.20;99441.66;4960838;28;20426;-75
2022/09/06 07:03:46;;;;;;;9.50;2.53;;;;;;;39.20;18.50;99448.66;4979692;28;20172;-74
2022/09/06 07:06:11;;;;;;;7.70;2.35;;;;;;;39.32;18.19;99461.09;4978765;28;20136;-75
2022/09/06 07:08:37;;;;;;;11.88;2.63;;;;;;;39.32;18.24;99452.91;4994978;28;20129;-74
2022/09/06 07:11:04;;;;;;;7.47;3.40;;;;;;;39.36;18.06;99465.69;4979688;28;20567;-72
2022/09/06 07:13:30;;;;;;;8.07;2.60;;;;;;;39.34;18.23;99456.97;4980824;28;20033;-74
2022/09/06 07:16:18;;;;;;;6.85;2.25;;;;;;;39.30;17.95;99464.13;4993235;28;20398;-75
2022/09/06 07:18:44;;;;;;;5.95;2.10;;;;;;;39.33;18.09;99457.25;4993388;28;20033;-74
2022/09/06 07:21:11;;;;;;;9.80;3.37;;;;;;;39.33;18.03;99460.81;4977125;28;20046;-75
2022/09/06 07:23:36;;;;;;;7.43;3.97;;;;;;;39.35;18.39;99458.59;4978818;28;20027;-75
2022/09/06 07:26:02;;;;;;;7.43;3.28;;;;;;;39.44;18.28;99461.50;4996802;28;20026;-74
2022/09/06 07:28:27;;;;;;;4.07;2.50;;;;;;;39.54;18.00;99460.59;4980379;28;20417;-74
2022/09/06 07:30:54;;;;;;;5.68;2.45;;;;;;;39.59;18.12;99464.06;4996458;28;20030;-74
2022/09/06 07:33:19;;;;;;;7.40;2.70;;;;;;;39.62;17.79;99457.22;4980740;28;20053;-74
2022/09/06 07:35:58;;;;;;;7.32;2.13;;;;;;;39.66;18.03;99457.44;4995623;28;20482;-76
2022/09/06 07:38:24;;;;;;;5.63;2.10;;;;;;;39.79;17.84;99454.00;4980170;28;20532;-74
2022/09/06 07:40:53;;;;;;;7.25;1.90;;;;;;;39.91;17.60;99456.28;4980265;28;20033;-74
2022/09/06 07:43:19;;;;;;;6.43;1.73;;;;;;;40.01;17.68;99456.19;4980034;28;20021;-74
2022/09/06 07:45:44;;;;;;;3.55;1.55;;;;;;;40.10;17.59;99451.66;4996423;28;20057;-74
2022/09/06 07:48:10;;;;;;;7.57;1.88;;;;;;;40.18;17.05;99444.72;4996536;28;20034;-75
2022/09/06 07:50:35;;;;;;;4.82;1.80;;;;;;;40.20;17.03;99449.88;4979552;28;20477;-75
2022/09/06 07:53:07;;;;;;;5.95;1.70;;;;;;;40.20;17.41;99444.41;4980266;28;20037;-76
2022/09/06 07:55:33;;;;;;;3.88;1.40;;;;;;;40.20;18.04;99445.25;4963710;28;20030;-74
2022/09/06 07:57:58;;;;;;;4.68;1.58;;;;;;;40.20;17.46;99447.16;4995618;28;20049;-73
2022/09/06 08:00:24;;;;;;;3.47;1.75;;;;;;;40.21;17.16;99438.66;5013526;28;20112;-73
2022/09/06 08:02:49;;;;;;;2.40;1.42;;;;;;;40.31;17.00;99441.22;4995761;28;20042;-74
2022/09/06 08:05:15;;;;;;;4.15;1.52;;;;;;;40.33;16.62;99436.28;4979417;28;20144;-75
2022/09/06 08:07:40;;;;;;;7.05;1.70;;;;;;;40.35;16.62;99430.50;4995661;28;20397;-74
2022/09/06 08:10:06;;;;;;;5.82;1.80;;;;;;;40.47;16.49;99435.53;4995898;28;20045;-75
2022/09/06 08:12:32;;;;;;;6.40;1.42;;;;;;;40.61;16.22;99438.31;4979662;28;20437;-74
2022/09/06 08:14:57;;;;;;;3.75;1.30;;;;;;;40.68;16.05;99438.75;5013170;28;20033;-74
2022/09/06 08:17:23;;;;;;;6.22;1.77;;;;;;;40.69;15.61;99430.22;4976093;28;20038;-76
2022/09/06 08:19:48;;;;;;;3.88;1.65;;;;;;;40.74;15.42;99436.72;4975804;28;20526;-75
2022/09/06 08:22:14;;;;;;;5.55;1.80;;;;;;;40.75;15.88;99435.59;4960422;28;20030;-74
2022/09/06 08:24:39;;;;;;;4.88;1.50;;;;;;;40.77;15.70;99436.94;4976961;28;20112;-74
2022/09/06 08:27:07;;;;;;;4.32;1.63;;;;;;;40.80;15.46;99436.34;4976110;28;20043;-74
2022/09/06 08:29:34;;;;;;;6.25;1.80;;;;;;;40.83;15.06;99432.16;4977603;28;20117;-75
2022/09/06 08:31:59;;;;;;;5.07;1.53;;;;;;;40.85;15.13;99427.25;5012972;28;20029;-75
2022/09/06 08:34:25;;;;;;;3.88;1.48;;;;;;;40.91;15.02;99433.44;4995278;28;20033;-74
2022/09/06 08:36:50;;;;;;;3.70;1.30;;;;;;;40.89;14.92;99424.72;4995357;28;20041;-76
2022/09/06 08:39:16;;;;;;;2.45;1.45;;;;;;;40.86;14.77;99420.66;4995464;28;20112;-75
2022/09/06 08:41:50;;;;;;;3.00;1.08;;;;;;;40.79;14.89;99423.75;4979541;28;20073;-75
2022/09/06 08:44:20;;;;;;;4.50;1.45;;;;;;;40.75;14.89;99419.19;4995222;28;20065;-74
2022/09/06 08:46:58;;;;;;;2.28;1.30;;;;;;;40.70;14.63;99425.56;4978600;28;20413;-76
2022/09/06 08:49:25;;;;;;;5.10;1.48;;;;;;;40.59;14.97;99416.72;4995580;28;20033;-75
2022/09/06 08:51:59;;;;;;;3.47;1.42;;;;;;;40.55;14.76;99412.16;4962956;28;20034;-74
2022/09/06 08:54:27;;;;;;;4.70;1.50;;;;;;;40.49;14.75;99414.97;5012566;28;20540;-75
2022/09/06 08:57:02;;;;;;;5.35;1.50;;;;;;;40.44;15.25;99400.59;4995183;28;20485;-75
2022/09/06 08:59:28;;;;;;;3.72;1.30;;;;;;;40.39;15.05;99414.28;4994950;28;20032;-74
2022/09/06 09:01:56;;;;;;;2.58;1.48;;;;;;;40.29;15.55;99399.69;4975767;28;20418;-75
2022/09/06 09:04:23;;;;;;;3.13;1.67;;;;;;;40.19;15.52;99401.78;5009050;28;20081;-74
2022/09/06 09:06:51;;;;;;;2.90;1.50;;;;;;;40.13;15.69;99396.38;4975525;28;20086;-74
2022/09/06 09:09:16;;;;;;;3.58;1.30;;;;;;;40.07;15.62;99399.50;4975618;28;20038;-75
2022/09/06 09:11:42;;;;;;;3.55;2.10;;;;;;;39.95;15.89;99397.19;4975714;28;20042;-74
2022/09/06 09:14:14;;;;;;;4.30;1.40;;;;;;;39.85;15.72;99389.13;4943547;28;20034;-73
2022/09/06 09:16:40;;;;;;;4.65;1.52;;;;;;;39.71;15.65;99389.06;4976254;28;20077;-75
2022/09/06 09:19:05;;;;;;;2.35;1.30;;;;;;;39.51;15.93;99385.47;4992893;28;20063;-75
2022/09/06 09:21:33;;;;;;;5.05;1.38;;;;;;;39.42;15.86;99384.50;4959289;28;20496;-75
2022/09/06 09:24:02;;;;;;;5.63;1.38;;;;;;;39.30;16.29;99382.22;4959547;28;20054;-74
2022/09/06 09:26:31;;;;;;;2.85;1.40;;;;;;;39.07;16.47;99386.53;4992710;28;20030;-75
2022/09/06 09:29:10;;;;;;;6.65;1.65;;;;;;;38.89;16.78;99374.47;4959181;28;20111;-74
2022/09/06 09:31:48;;;;;;;3.90;1.50;;;;;;;38.79;16.94;99366.38;4975562;28;20030;-74
2022/09/06 09:34:33;;;;;;;3.63;1.42;;;;;;;38.67;17.20;99364.88;4975988;28;20096;-74
2022/09/06 09:37:21;;;;;;;4.22;1.60;;;;;;;38.65;17.09;99367.06;4944019;28;20038;-74
2022/09/06 09:39:47;;;;;;;5.28;1.52;;;;;;;38.58;17.24;99354.84;4959101;28;20045;-74
2022/09/06 09:42:22;;;;;;;4.55;1.63;;;;;;;38.50;17.05;99364.47;4943270;28;20097;-75
2022/09/06 09:44:48;;;;;;;5.80;1.50;;;;;;;38.35;17.52;99363.50;4960254;28;20089;-74
2022/09/06 09:47:23;;;;;;;3.58;1.52;;;;;;;38.24;17.32;99361.97;4942308;28;20047;-75
2022/09/06 09:49:48;;;;;;;5.25;1.50;;;;;;;38.18;17.20;99363.09;4959675;28;20039;-74
2022/09/06 09:52:14;;;;;;;4.47;1.48;;;;;;;38.06;17.36;99351.72;4942529;28;20509;-75
2022/09/06 09:54:43;;;;;;;3.78;1.50;;;;;;;37.93;17.72;99355.91;4959466;28;20069;-74
2022/09/06 09:57:10;;;;;;;3.47;1.60;;;;;;;37.80;17.89;99354.63;4975144;28;20027;-74
2022/09/06 09:59:35;;;;;;;2.78;1.50;;;;;;;37.69;18.16;99342.19;4959364;28;20173;-75
2022/09/06 10:02:02;;;;;;;7.10;1.60;;;;;;;37.63;18.11;99344.88;4992909;28;20460;-75
2022/09/06 10:04:48;;;;;;;5.28;1.67;;;;;;;37.51;18.13;99341.66;4959760;28;20038;-74
2022/09/06 10:07:15;;;;;;;5.55;1.90;;;;;;;37.33;18.23;99345.88;4991418;28;20034;-74
2022/09/06 10:09:47;;;;;;;5.13;1.75;;;;;;;37.08;18.40;99327.69;4991263;28;20117;-74
2022/09/06 10:12:34;;;;;;;3.33;1.70;;;;;;;36.89;18.55;99331.03;4954264;28;20473;-75
2022/09/06 10:15:00;;;;;;;3.83;1.83;;;;;;;36.70;18.65;99324.53;4988127;28;20050;-74
2022/09/06 10:17:25;;;;;;;5.88;1.50;;;;;;;36.56;19.07;99332.44;4965666;28;20038;-74
2022/09/06 10:19:51;;;;;;;4.18;1.65;;;;;;;36.35;19.11;99323.50;5015368;28;20026;-76
2022/09/06 10:22:25;;;;;;;6.18;1.40;;;;;;;36.14;19.51;99311.81;4965420;28;20061;-74
2022/09/06 10:25:28;;;;;;;3.97;1.83;;;;;;;36.00;19.73;99320.47;4981434;28;20028;-74
2022/09/06 10:28:21;;;;;;;4.18;1.45;;;;;;;35.81;20.15;99313.97;5015258;28;20030;-75
2022/09/06 10:31:21;;;;;;;4.60;1.35;;;;;;;35.57;20.56;99310.91;4997882;28;20067;-74
2022/09/06 10:34:14;;;;;;;4.85;1.60;;;;;;;35.46;20.35;99304.63;4984435;28;20029;-75
2022/09/06 10:36:45;;;;;;;3.00;1.58;;;;;;;35.39;20.65;99304.84;5014988;28;20033;-74
2022/09/06 10:39:13;;;;;;;3.90;1.50;;;;;;;35.36;20.93;99310.00;4981816;28;20034;-74
2022/09/06 10:42:00;;;;;;;3.22;1.55;;;;;;;35.26;21.19;99298.03;4997342;28;20029;-74
2022/09/06 10:44:41;;;;;;;4.22;1.40;;;;;;;35.17;21.56;99302.34;4981074;28;20033;-74
2022/09/06 10:47:11;;;;;;;4.10;1.60;;;;;;;35.04;21.66;99292.78;4997161;28;20026;-74
2022/09/06 10:49:37;;;;;;;5.18;1.40;;;;;;;34.93;21.54;99291.09;4964733;28;20042;-74
2022/09/06 10:52:04;;;;;;;3.78;1.30;;;;;;;34.75;21.65;99285.06;4981232;28;20030;-74
2022/09/06 10:54:30;;;;;;;4.25;1.45;;;;;;;34.58;21.62;99297.94;4980963;28;20088;-75
2022/09/06 10:57:22;;;;;;;3.65;1.50;;;;;;;34.37;21.76;99284.25;4964479;28;20041;-74
2022/09/06 10:59:59;;;;;;;5.32;1.55;;;;;;;34.17;21.96;99284.88;4988871;28;20050;-74
2022/09/06 11:02:36;;;;;;;6.07;1.40;;;;;;;33.96;22.35;99278.50;4965507;28;20033;-75
2022/09/06 11:05:05;;;;;;;3.65;1.50;;;;;;;33.71;22.24;99271.78;4996853;28;20131;-75
2022/09/06 11:07:35;;;;;;;4.47;1.40;;;;;;;33.48;22.41;99272.88;4996823;28;20101;-73
2022/09/06 11:10:16;;;;;;;4.15;1.65;;;;;;;33.25;22.52;99273.16;4965276;28;20129;-74
2022/09/06 11:12:52;;;;;;;4.85;1.48;;;;;;;33.13;22.94;99273.25;5014110;28;20033;-74
2022/09/06 11:15:18;;;;;;;5.03;1.67;;;;;;;32.97;22.82;99262.28;5012891;28;20080;-74
2022/09/06 11:17:52;;;;;;;8.13;1.60;;;;;;;32.93;23.13;99271.16;4996622;28;20117;-74
2022/09/06 11:20:46;;;;;;;4.65;1.40;;;;;;;32.74;23.29;99271.44;5014141;28;20474;-74
2022/09/06 11:23:30;;;;;;;4.60;1.45;;;;;;;32.49;23.43;99262.94;4899371;29;20667;-74
2022/09/06 11:26:13;;;;;;;5.28;1.50;;;;;;;32.36;23.70;99266.81;4915314;29;20032;-73
2022/09/06 11:28:43;;;;;;;3.28;1.40;;;;;;;32.24;24.23;99261.50;4915678;29;20393;-74
2022/09/06 11:31:10;;;;;;;6.15;1.40;;;;;;;32.15;24.45;99254.88;4899990;29;20027;-74
2022/09/06 11:33:38;;;;;;;6.80;1.30;;;;;;;32.18;24.54;99255.22;4899713;29;20428;-74
2022/09/06 11:36:16;;;;;;;2.63;1.35;;;;;;;32.16;24.35;99257.31;4899780;29;20596;-74
2022/09/06 11:38:41;;;;;;;4.88;1.58;;;;;;;32.24;24.22;99253.41;4915309;29;20036;-75
2022/09/06 11:41:13;;;;;;;2.42;1.40;;;;;;;32.24;24.20;99251.50;4899637;29;20051;-73
2022/09/06 11:43:51;;;;;;;2.88;1.30;;;;;;;32.19;24.35;99251.44;4900103;29;20087;-75